Time;durP1;ratioP1;P1;durP2;ratioP2;P2;SDS_P1;SDS_P2;PMS_P1;PMS_P2;Temp;Humidity;BMP_temperature;BMP_pressure;BME280_temperature;BME280_humidity;BME280_pressure;Samples;Min_cycle;Max_cycle;Signal;HPM_P1;HPM_P2
2023/02/19 00:02:51;;;;;;;20.30;11.73;;;11.10;88.20;;;;;;9193834;19;20261;-67
2023/02/19 00:05:57;;;;;;;23.60;11.20;;;11.10;88.20;;;;;;9192513;19;20014;-67
2023/02/19 00:09:03;;;;;;;21.40;12.68;;;11.10;88.20;;;;;;9192965;19;20015;-67
2023/02/19 00:12:08;;;;;;;26.80;12.98;;;11.10;88.30;;;;;;9190104;19;20025;-67
2023/02/19 00:15:13;;;;;;;28.85;13.63;;;11.10;88.30;;;;;;9192265;19;20014;-67
2023/02/19 00:18:17;;;;;;;;;;;11.10;88.40;;;;;;9190514;19;20495;-68
2023/02/19 00:21:28;;;;;;;25.48;12.77;;;11.10;88.40;;;;;;9187928;19;19922;-67
2023/02/19 00:24:32;;;;;;;28.73;13.75;;;11.10;88.30;;;;;;9191836;19;20606;-66
2023/02/19 00:27:38;;;;;;;30.33;14.73;;;11.10;88.30;;;;;;9189554;19;20025;-67
2023/02/19 00:30:42;;;;;;;;;;;11.10;88.40;;;;;;9193390;19;20029;-67
2023/02/19 00:33:49;;;;;;;24.35;12.45;;;11.10;88.40;;;;;;9187823;19;19922;-67
2023/02/19 00:36:55;;;;;;;27.65;13.55;;;11.10;88.30;;;;;;9180694;19;20011;-67
2023/02/19 00:40:01;;;;;;;21.17;12.35;;;11.10;88.30;;;;;;9181467;19;20022;-67
2023/02/19 00:43:04;;;;;;;;;;;11.10;88.40;;;;;;9184326;19;20085;-67
2023/02/19 00:46:10;;;;;;;29.00;13.77;;;11.10;88.40;;;;;;9181170;19;19922;-67
2023/02/19 00:49:18;;;;;;;28.05;14.07;;;11.10;88.30;;;;;;9181996;19;20018;-67
2023/02/19 00:52:26;;;;;;;28.63;12.88;;;11.10;88.40;;;;;;9181811;19;20033;-67
2023/02/19 00:55:30;;;;;;;29.00;12.98;;;11.10;88.40;;;;;;9181670;19;20959;-68
2023/02/19 00:58:36;;;;;;;35.47;14.32;;;11.10;88.40;;;;;;9181487;19;20014;-67
2023/02/19 01:01:40;;;;;;;27.48;14.10;;;11.10;88.50;;;;;;9177381;19;20018;-67
2023/02/19 01:04:46;;;;;;;34.22;15.60;;;11.10;89.10;;;;;;9182119;19;20019;-67
2023/02/19 01:07:52;;;;;;;;;;;11.10;88.50;;;;;;9180291;19;20018;-67
2023/02/19 01:10:58;;;;;;;30.70;14.57;;;11.10;88.50;;;;;;9179035;19;19922;-66
2023/02/19 01:14:03;;;;;;;36.67;15.85;;;11.10;88.40;;;;;;9180733;19;20422;-67
2023/02/19 01:17:09;;;;;;;34.38;14.18;;;11.10;88.50;;;;;;9181235;19;20018;-67
2023/02/19 01:20:13;;;;;;;;;;;11.10;88.60;;;;;;9175398;19;20021;-67
2023/02/19 01:23:21;;;;;;;32.88;14.30;;;11.10;88.60;;;;;;9178588;19;20546;-67
2023/02/19 01:26:27;;;;;;;39.88;16.85;;;11.00;88.40;;;;;;9179697;19;20082;-67
2023/02/19 01:29:33;;;;;;;40.47;14.43;;;11.10;88.60;;;;;;9178663;19;20476;-68
2023/02/19 01:32:37;;;;;;;35.70;13.63;;;11.10;88.60;;;;;;9180739;19;20019;-67
2023/02/19 01:35:43;;;;;;;36.45;15.15;;;11.10;88.60;;;;;;9180209;19;20473;-67
2023/02/19 01:38:49;;;;;;;41.10;15.38;;;11.10;88.70;;;;;;9180430;19;20089;-67
2023/02/19 01:41:54;;;;;;;34.28;13.90;;;11.10;88.70;;;;;;9175020;19;20030;-67
2023/02/19 01:45:21;;;;;;;37.17;14.88;;;11.00;88.70;;;;;;9180475;19;20019;-67
2023/02/19 01:48:31;;;;;;;33.13;14.50;;;11.00;88.80;;;;;;9179983;19;20042;-67
2023/02/19 01:51:38;;;;;;;32.25;13.50;;;11.00;88.70;;;;;;9179921;19;20024;-67
2023/02/19 01:54:48;;;;;;;25.15;11.70;;;11.00;88.70;;;;;;9180562;19;20006;-67
2023/02/19 01:57:56;;;;;;;34.92;13.13;;;11.00;88.80;;;;;;9180081;19;20023;-67
2023/02/19 02:01:03;;;;;;;24.17;12.52;;;11.00;88.80;;;;;;9177176;19;20015;-67
2023/02/19 02:04:10;;;;;;;32.38;12.82;;;11.00;88.80;;;;;;9180034;19;20006;-67
2023/02/19 02:10:35;;;;;;;28.75;11.63;;;11.00;88.80;;;;;;9178124;19;20110;-67
2023/02/19 02:13:41;;;;;;;23.15;12.30;;;11.00;88.80;;;;;;9179466;19;20019;-67
2023/02/19 02:16:53;;;;;;;28.20;10.77;;;11.00;88.80;;;;;;9177858;19;20015;-68
2023/02/19 02:20:25;;;;;;;29.83;10.93;;;11.00;88.80;;;;;;9172782;19;20794;-67
2023/02/19 02:23:41;;;;;;;30.23;10.63;;;11.00;88.90;;;;;;9179561;19;20055;-67
2023/02/19 02:27:05;;;;;;;21.50;9.27;;;11.00;88.90;;;;;;9176674;19;20365;-67
2023/02/19 02:30:36;;;;;;;33.75;10.57;;;11.00;88.90;;;;;;9178924;19;20027;-67
2023/02/19 02:33:48;;;;;;;25.35;9.60;;;11.00;88.90;;;;;;9177201;19;20015;-67
2023/02/19 02:36:55;;;;;;;28.45;9.50;;;10.90;88.80;;;;;;9179221;19;20019;-67
2023/02/19 02:40:02;;;;;;;24.88;8.95;;;10.90;88.80;;;;;;9175531;19;20021;-67
2023/02/19 02:43:08;;;;;;;21.63;8.80;;;10.90;88.80;;;;;;9176553;19;20007;-67
2023/02/19 02:46:20;;;;;;;25.33;8.50;;;10.90;88.80;;;;;;9178812;19;20020;-67
2023/02/19 02:49:27;;;;;;;22.58;8.35;;;10.90;88.80;;;;;;9176673;19;20006;-67
2023/02/19 02:55:54;;;;;;;21.88;9.55;;;10.90;88.90;;;;;;9177570;19;20029;-65
2023/02/19 02:59:04;;;;;;;18.10;8.43;;;10.90;88.90;;;;;;9175817;19;20019;-67
2023/02/19 03:02:13;;;;;;;24.17;8.07;;;10.90;88.90;;;;;;9171636;19;20025;-67
2023/02/19 03:08:45;;;;;;;18.10;8.02;;;10.90;88.90;;;;;;9175581;19;20019;-67
2023/02/19 03:22:08;;;;;;;15.82;7.95;;;10.80;88.90;;;;;;9170630;19;20010;-67
2023/02/19 03:32:13;;;;;;;19.40;7.55;;;10.80;88.90;;;;;;9171290;19;20018;-68
2023/02/19 03:35:23;;;;;;;19.13;6.68;;;10.80;88.90;;;;;;9176954;19;20011;-67
2023/02/19 03:38:37;;;;;;;16.77;7.00;;;10.70;88.80;;;;;;9174309;19;20011;-66
2023/02/19 03:41:47;;;;;;;17.55;7.50;;;10.70;88.90;;;;;;9171396;19;20970;-67
2023/02/19 03:45:11;;;;;;;17.25;6.75;;;10.70;88.90;;;;;;9174540;19;20026;-67
2023/02/19 03:48:25;;;;;;;18.10;6.57;;;10.70;88.90;;;;;;9174360;19;20412;-67
2023/02/19 03:51:42;;;;;;;14.23;6.57;;;10.70;88.90;;;;;;9174305;19;20018;-67
2023/02/19 03:54:53;;;;;;;12.55;5.72;;;10.70;88.90;;;;;;9174809;19;20038;-67
2023/02/19 03:58:06;;;;;;;13.40;6.22;;;10.70;88.90;;;;;;9174295;19;20122;-67
2023/02/19 04:01:15;;;;;;;12.45;6.20;;;10.70;89.00;;;;;;9173323;19;20019;-66
2023/02/19 04:04:30;;;;;;;14.13;6.60;;;10.70;88.90;;;;;;9175534;19;20034;-67
2023/02/19 04:07:39;;;;;;;14.85;6.28;;;10.60;88.90;;;;;;9174786;19;20020;-67
2023/02/19 04:10:49;;;;;;;16.50;5.75;;;10.60;88.90;;;;;;9178113;19;20018;-67
2023/02/19 04:14:04;;;;;;;11.05;5.40;;;10.60;88.90;;;;;;9179408;19;20029;-67
2023/02/19 04:17:18;;;;;;;17.00;6.05;;;10.60;88.90;;;;;;9183636;19;20018;-66
2023/02/19 04:20:24;;;;;;;18.65;6.53;;;10.60;88.90;;;;;;9178283;19;20019;-67
2023/02/19 04:23:37;;;;;;;17.08;6.25;;;10.60;89.00;;;;;;9182856;19;20019;-66
2023/02/19 04:26:42;;;;;;;16.83;6.10;;;10.50;88.90;;;;;;9182697;19;20011;-65
2023/02/19 04:29:48;;;;;;;14.20;6.30;;;10.50;88.90;;;;;;9182670;19;20017;-68
2023/02/19 04:32:52;;;;;;;20.70;5.30;;;10.50;88.90;;;;;;9182804;19;20038;-68
2023/02/19 04:36:10;;;;;;;16.63;6.38;;;10.50;88.90;;;;;;9182293;19;20025;-65
2023/02/19 04:39:16;;;;;;;19.25;6.90;;;10.50;89.00;;;;;;9182553;19;20022;-67
2023/02/19 04:42:22;;;;;;;23.48;6.25;;;10.50;88.90;;;;;;9179603;19;20352;-67
2023/02/19 04:45:26;;;;;;;16.20;6.43;;;10.50;89.00;;;;;;9183062;19;20018;-68
2023/02/19 04:48:32;;;;;;;20.33;6.32;;;10.50;88.90;;;;;;9182174;19;20019;-67
2023/02/19 04:51:36;;;;;;;22.73;7.65;;;10.50;88.90;;;;;;9182575;19;20094;-67
2023/02/19 04:54:44;;;;;;;18.40;7.03;;;10.50;89.00;;;;;;9182256;19;20342;-66
2023/02/19 04:57:48;;;;;;;19.90;6.72;;;10.50;89.00;;;;;;9181770;19;20058;-66
2023/02/19 05:00:54;;;;;;;20.27;6.65;;;10.40;88.90;;;;;;9180639;19;20461;-67
2023/02/19 05:03:57;;;;;;;;;;;10.40;88.90;;;;;;9181569;19;20356;-67
2023/02/19 05:07:03;;;;;;;12.13;6.07;;;10.40;88.90;;;;;;9179286;19;19985;-66
2023/02/19 05:10:09;;;;;;;;;;;10.50;88.80;;;;;;9178571;19;20340;-67
2023/02/19 05:13:15;;;;;;;18.23;6.13;;;10.40;88.80;;;;;;9181378;19;19919;-67
2023/02/19 05:16:18;;;;;;;;;;;10.40;88.80;;;;;;9180025;19;20010;-67
2023/02/19 05:19:24;;;;;;;18.08;6.47;;;10.40;88.80;;;;;;9176629;19;20347;-67
2023/02/19 05:22:29;;;;;;;13.93;7.05;;;10.40;88.80;;;;;;9176304;19;20014;-67
2023/02/19 05:25:37;;;;;;;16.55;6.13;;;10.40;88.80;;;;;;9181105;19;20029;-67
2023/02/19 05:28:41;;;;;;;19.90;6.72;;;10.30;88.80;;;;;;9181487;19;20538;-67
2023/02/19 05:31:47;;;;;;;16.45;7.05;;;10.40;88.90;;;;;;9180845;19;20015;-67
2023/02/19 05:34:52;;;;;;;22.27;6.50;;;10.30;88.90;;;;;;9180946;19;20034;-67
2023/02/19 05:37:58;;;;;;;20.52;6.38;;;10.30;88.90;;;;;;9180389;19;20010;-66
2023/02/19 05:41:10;;;;;;;;;;;10.30;88.90;;;;;;9180394;19;20029;-67
2023/02/19 05:44:16;;;;;;;;;;;10.30;88.90;;;;;;9181429;19;19926;-67
2023/02/19 05:47:20;;;;;;;19.65;6.88;;;10.30;88.80;;;;;;9180997;19;20546;-66
2023/02/19 05:50:26;;;;;;;12.27;7.03;;;10.30;88.80;;;;;;9180159;19;20025;-66
2023/02/19 05:53:30;;;;;;;18.85;7.40;;;10.30;88.80;;;;;;9179724;19;20011;-67
2023/02/19 05:56:40;;;;;;;16.70;6.53;;;10.30;88.80;;;;;;9178257;19;20030;-66
2023/02/19 05:59:44;;;;;;;12.27;5.70;;;10.30;88.90;;;;;;9179380;19;20637;-67
2023/02/19 06:02:50;;;;;;;19.35;6.32;;;10.20;88.90;;;;;;9179547;19;20021;-67
2023/02/19 06:05:53;;;;;;;;;;;10.20;88.80;;;;;;9175639;19;20042;-67
2023/02/19 06:08:59;;;;;;;16.17;6.70;;;10.20;88.80;;;;;;9179564;19;19919;-67
2023/02/19 06:12:06;;;;;;;;;;;10.20;88.70;;;;;;9178362;19;20011;-67
2023/02/19 06:15:12;;;;;;;14.00;6.47;;;10.20;88.80;;;;;;9179873;19;19923;-67
2023/02/19 06:18:16;;;;;;;;;;;10.20;88.70;;;;;;9178888;19;20487;-68
2023/02/19 06:21:22;;;;;;;17.75;6.25;;;10.20;88.80;;;;;;9177204;19;19919;-67
2023/02/19 06:24:26;;;;;;;19.25;6.70;;;10.20;88.80;;;;;;9179013;19;20407;-67
2023/02/19 06:27:34;;;;;;;22.77;6.55;;;10.10;88.80;;;;;;9179070;19;20025;-66
2023/02/19 06:30:37;;;;;;;21.98;7.63;;;10.20;88.80;;;;;;9179375;19;20014;-66
2023/02/19 06:33:44;;;;;;;21.20;6.35;;;10.10;88.80;;;;;;9176483;19;20018;-67
2023/02/19 06:36:50;;;;;;;16.67;5.72;;;10.10;88.80;;;;;;9178833;19;20086;-66
2023/02/19 06:39:55;;;;;;;11.82;5.55;;;10.10;88.80;;;;;;9177743;19;20021;-66
2023/02/19 06:43:01;;;;;;;9.05;4.85;;;10.10;88.80;;;;;;9179116;19;20025;-67
2023/02/19 06:46:08;;;;;;;13.18;4.82;;;10.10;88.90;;;;;;9178608;19;20019;-66
2023/02/19 06:49:12;;;;;;;13.73;5.60;;;10.00;88.80;;;;;;9178213;19;20016;-67
2023/02/19 06:52:18;;;;;;;14.45;5.30;;;10.00;88.80;;;;;;9178268;19;20376;-67
2023/02/19 06:55:22;;;;;;;15.52;5.70;;;10.00;88.80;;;;;;9178391;19;20014;-66
2023/02/19 06:58:30;;;;;;;14.13;5.68;;;10.00;88.80;;;;;;9178930;19;20014;-66
2023/02/19 07:01:35;;;;;;;18.70;6.32;;;10.00;88.80;;;;;;9175092;19;20093;-66
2023/02/19 07:04:41;;;;;;;16.30;7.50;;;10.00;88.90;;;;;;9177995;19;20026;-67
2023/02/19 07:07:46;;;;;;;;;;;10.00;88.80;;;;;;9179526;19;20010;-67
2023/02/19 07:10:59;;;;;;;14.70;6.03;;;10.00;88.80;;;;;;9175910;19;19921;-67
2023/02/19 07:14:07;;;;;;;7.32;4.07;;;10.00;88.70;;;;;;9177232;19;20369;-67
2023/02/19 07:17:13;;;;;;;8.05;3.17;;;9.90;88.70;;;;;;9177599;19;20014;-67
2023/02/19 07:20:16;;;;;;;5.55;3.35;;;9.90;88.70;;;;;;9172905;19;20043;-67
2023/02/19 07:23:22;;;;;;;5.80;3.80;;;9.90;88.70;;;;;;9177092;19;20018;-68
2023/02/19 07:26:26;;;;;;;3.85;2.67;;;9.80;88.60;;;;;;9176210;19;20341;-65
2023/02/19 07:29:34;;;;;;;9.07;3.78;;;9.80;88.70;;;;;;9177361;19;20025;-66
2023/02/19 07:32:44;;;;;;;3.60;2.42;;;9.80;88.60;;;;;;9176577;19;20018;-66
2023/02/19 07:35:51;;;;;;;3.55;2.40;;;9.80;88.70;;;;;;9174768;19;20015;-67
2023/02/19 07:38:56;;;;;;;2.65;2.10;;;9.70;88.50;;;;;;9176458;19;20007;-67
2023/02/19 07:42:02;;;;;;;6.68;2.40;;;9.80;88.50;;;;;;9171814;19;20025;-66
2023/02/19 07:45:11;;;;;;;3.47;2.30;;;9.70;88.40;;;;;;9180867;19;20049;-67
2023/02/19 07:48:17;;;;;;;2.78;2.05;;;9.70;88.50;;;;;;9183988;19;20026;-68
2023/02/19 07:51:21;;;;;;;3.00;1.92;;;9.70;88.40;;;;;;9184142;19;20007;-67
2023/02/19 07:54:27;;;;;;;4.30;2.25;;;9.60;88.30;;;;;;9184368;19;20371;-67
2023/02/19 07:57:31;;;;;;;;;;;9.60;88.30;;;;;;9183366;19;20046;-67
2023/02/19 08:00:39;;;;;;;3.20;2.03;;;9.60;88.30;;;;;;9183747;19;19922;-67
2023/02/19 08:03:44;;;;;;;5.10;2.63;;;9.60;88.30;;;;;;9183778;19;20021;-67
2023/02/19 08:06:50;;;;;;;4.93;2.35;;;9.50;88.20;;;;;;9175365;19;20021;-67
2023/02/19 08:13:18;;;;;;;3.58;2.42;;;9.50;88.30;;;;;;9177028;19;20022;-67
2023/02/19 08:13:21;;;;;;;3.40;2.30;;;9.40;88.20;;;;;;9176627;19;20022;-67
2023/02/19 08:16:27;;;;;;;3.85;2.50;;;9.40;88.10;;;;;;9176562;19;20018;-66
2023/02/19 08:19:48;;;;;;;4.82;2.60;;;9.30;88.00;;;;;;9172980;19;20023;-67
2023/02/19 08:22:52;;;;;;;;;;;9.20;88.10;;;;;;9176268;19;20010;-67
2023/02/19 08:26:01;;;;;;;3.95;2.72;;;9.20;88.00;;;;;;9177889;19;19929;-66
2023/02/19 08:29:06;;;;;;;4.90;2.85;;;9.10;87.90;;;;;;9177515;19;20013;-65
2023/02/19 08:32:14;;;;;;;4.57;2.75;;;9.00;87.80;;;;;;9175575;19;20475;-67
2023/02/19 08:35:18;;;;;;;3.42;2.63;;;8.90;87.90;;;;;;9177480;19;20697;-66
2023/02/19 08:38:24;;;;;;;3.90;2.58;;;8.90;88.00;;;;;;9176422;19;20018;-67
2023/02/19 08:41:28;;;;;;;4.28;2.90;;;8.80;88.00;;;;;;9175003;19;20018;-66
2023/02/19 08:44:34;;;;;;;4.20;2.72;;;8.80;88.10;;;;;;9176666;19;20021;-66
2023/02/19 08:47:40;;;;;;;;;;;8.70;88.20;;;;;;9178075;19;20035;-66
2023/02/19 08:50:46;;;;;;;3.58;2.33;;;8.70;88.20;;;;;;9175462;19;19919;-66
2023/02/19 08:53:50;;;;;;;5.25;2.95;;;8.70;88.20;;;;;;9171418;19;20368;-66
2023/02/19 08:56:55;;;;;;;5.18;2.92;;;8.70;88.30;;;;;;9172508;19;20011;-70
2023/02/19 08:59:59;;;;;;;;;;;8.70;88.30;;;;;;9175473;19;20085;-67
2023/02/19 09:03:07;;;;;;;4.72;2.40;;;8.70;88.40;;;;;;9171418;19;20260;-66
2023/02/19 09:06:15;;;;;;;3.88;2.30;;;8.70;88.20;;;;;;9173045;19;20038;-66
2023/02/19 09:09:21;;;;;;;6.50;2.55;;;8.60;88.10;;;;;;9175448;19;20352;-67
2023/02/19 09:12:25;;;;;;;;;;;8.60;88.10;;;;;;9171789;19;20043;-67
2023/02/19 09:15:32;;;;;;;3.33;2.15;;;8.60;88.00;;;;;;9174345;19;20391;-67
2023/02/19 09:18:38;;;;;;;4.60;2.85;;;8.60;88.10;;;;;;9169514;19;20018;-67
2023/02/19 09:21:44;;;;;;;4.20;2.60;;;8.50;88.00;;;;;;9172374;19;20114;-67
2023/02/19 09:24:48;;;;;;;3.95;2.53;;;8.50;88.00;;;;;;9173414;19;20029;-67
2023/02/19 09:27:56;;;;;;;5.85;2.55;;;8.50;88.00;;;;;;9172592;19;20014;-67
2023/02/19 09:31:06;;;;;;;4.22;2.33;;;8.40;87.90;;;;;;9173418;19;20047;-66
2023/02/19 09:34:14;;;;;;;3.05;1.83;;;8.40;87.90;;;;;;9172665;19;20114;-66
2023/02/19 09:37:18;;;;;;;3.80;2.50;;;8.40;88.00;;;;;;9172209;19;20489;-66
2023/02/19 09:40:24;;;;;;;3.65;2.30;;;8.40;88.00;;;;;;9173358;19;20475;-68
2023/02/19 09:43:29;;;;;;;;;;;8.40;88.00;;;;;;9174323;19;20021;-65
2023/02/19 09:46:39;;;;;;;3.33;2.17;;;8.40;87.90;;;;;;9174161;19;19915;-67
2023/02/19 09:49:48;;;;;;;4.22;2.35;;;8.40;87.90;;;;;;9171869;19;20011;-67
2023/02/19 09:52:57;;;;;;;2.85;2.28;;;8.40;87.90;;;;;;9173013;19;20772;-67
2023/02/19 09:56:02;;;;;;;3.75;2.30;;;8.40;87.90;;;;;;9173749;19;20018;-65
2023/02/19 09:59:14;;;;;;;3.00;1.83;;;8.40;87.80;;;;;;9172535;19;20018;-66
2023/02/19 10:02:19;;;;;;;3.15;1.88;;;8.50;87.90;;;;;;9167227;19;20090;-66
2023/02/19 10:05:28;;;;;;;2.35;1.98;;;8.50;87.80;;;;;;9172345;19;20021;-65
2023/02/19 10:08:34;;;;;;;3.58;2.55;;;8.50;87.70;;;;;;9170778;19;20014;-68
2023/02/19 10:11:40;;;;;;;3.75;2.03;;;8.50;87.70;;;;;;9165430;19;20011;-67
2023/02/19 10:14:48;;;;;;;2.50;1.90;;;8.50;87.70;;;;;;9167517;19;20035;-67
2023/02/19 10:17:54;;;;;;;3.22;2.28;;;8.60;87.70;;;;;;9167819;19;20014;-67
2023/02/19 10:21:01;;;;;;;4.40;2.72;;;8.60;87.70;;;;;;9162155;19;20018;-67
2023/02/19 10:24:09;;;;;;;4.78;2.65;;;8.60;87.60;;;;;;9164406;19;20014;-67
2023/02/19 10:27:14;;;;;;;3.33;2.22;;;8.70;87.50;;;;;;9165372;19;20026;-67
2023/02/19 10:30:22;;;;;;;3.10;2.03;;;8.70;87.50;;;;;;9164867;19;20010;-67
2023/02/19 10:33:27;;;;;;;5.28;2.97;;;8.70;87.40;;;;;;9171461;19;20023;-67
2023/02/19 10:36:39;;;;;;;4.90;2.50;;;8.70;87.40;;;;;;9171117;19;20022;-72
2023/02/19 10:39:46;;;;;;;4.47;2.20;;;8.80;87.40;;;;;;9159740;19;20017;-69
2023/02/19 10:42:55;;;;;;;3.45;2.20;;;8.80;87.40;;;;;;9164125;19;20010;-69
2023/02/19 10:46:00;;;;;;;3.22;2.25;;;8.80;87.40;;;;;;9166070;19;20060;-69
2023/02/19 10:49:18;;;;;;;3.20;2.30;;;8.90;87.40;;;;;;9165409;19;20018;-69
2023/02/19 10:52:28;;;;;;;4.15;2.45;;;9.00;87.40;;;;;;9167267;19;20015;-70
2023/02/19 10:55:37;;;;;;;3.85;1.98;;;9.00;87.30;;;;;;9164867;19;20336;-70
2023/02/19 10:58:43;;;;;;;3.83;2.45;;;9.10;87.30;;;;;;9160799;19;20049;-71
2023/02/19 11:01:56;;;;;;;3.25;2.35;;;9.10;87.30;;;;;;9165529;19;20033;-72
2023/02/19 11:05:18;;;;;;;2.78;1.75;;;9.20;87.10;;;;;;9164502;19;20027;-71
2023/02/19 11:08:26;;;;;;;;;;;9.30;87.10;;;;;;9160105;19;20015;-71
2023/02/19 11:11:33;;;;;;;3.28;2.17;;;9.30;87.00;;;;;;9162430;19;19938;-71
2023/02/19 11:14:43;;;;;;;3.05;2.33;;;9.40;87.00;;;;;;9161582;19;20018;-72
2023/02/19 11:17:55;;;;;;;3.53;2.53;;;9.40;87.00;;;;;;9158916;19;20027;-71
2023/02/19 11:21:03;;;;;;;4.80;2.70;;;9.50;87.00;;;;;;9158957;19;20022;-71
2023/02/19 11:24:25;;;;;;;3.25;2.03;;;9.60;86.90;;;;;;9165052;19;20018;-71
2023/02/19 11:27:31;;;;;;;2.85;2.20;;;9.60;86.90;;;;;;9167038;19;20026;-72
2023/02/19 11:30:38;;;;;;;2.63;2.05;;;9.70;86.80;;;;;;9163294;19;20048;-71
2023/02/19 11:33:46;;;;;;;4.38;2.30;;;9.70;86.70;;;;;;9160744;19;20015;-71
2023/02/19 11:37:09;;;;;;;3.13;2.10;;;9.80;86.60;;;;;;9165392;19;20117;-71
2023/02/19 11:40:17;;;;;;;3.33;1.95;;;9.80;86.40;;;;;;9166398;19;20014;-71
2023/02/19 11:43:40;;;;;;;3.40;2.22;;;9.90;86.40;;;;;;9160943;19;20032;-71
2023/02/19 11:46:57;;;;;;;3.80;2.30;;;9.90;86.30;;;;;;9162490;19;20011;-71
2023/02/19 11:50:07;;;;;;;3.45;2.10;;;10.00;86.20;;;;;;9163641;19;20014;-71
2023/02/19 11:53:22;;;;;;;3.05;1.98;;;10.00;86.20;;;;;;9167749;19;20018;-71
2023/02/19 11:56:34;;;;;;;2.35;1.67;;;10.10;86.20;;;;;;9164124;19;20039;-71
2023/02/19 11:59:47;;;;;;;4.13;2.25;;;10.20;86.10;;;;;;9163390;19;20013;-71
2023/02/19 12:03:25;;;;;;;3.58;1.98;;;10.20;86.00;;;;;;9164046;19;20102;-70
2023/02/19 12:06:38;;;;;;;3.75;2.20;;;10.20;85.80;;;;;;9165319;19;20006;-72
2023/02/19 12:09:52;;;;;;;3.70;2.22;;;10.30;85.90;;;;;;9166149;19;20023;-72
2023/02/19 12:13:11;;;;;;;3.55;2.35;;;10.30;85.70;;;;;;9164988;19;20014;-71
2023/02/19 12:16:22;;;;;;;2.38;1.67;;;10.30;85.60;;;;;;9165303;19;20063;-69
2023/02/19 12:19:54;;;;;;;3.45;2.33;;;10.40;85.60;;;;;;9157141;19;20021;-70
2023/02/19 12:23:15;;;;;;;3.38;2.10;;;10.40;85.60;;;;;;9163226;19;20026;-70
2023/02/19 12:26:25;;;;;;;3.57;2.10;;;10.40;85.40;;;;;;9165035;19;20021;-68
2023/02/19 12:29:49;;;;;;;3.10;1.98;;;10.40;85.40;;;;;;9167257;19;20507;-71
2023/02/19 12:33:25;;;;;;;4.18;1.80;;;10.40;85.20;;;;;;9170814;19;20018;-71
2023/02/19 12:36:37;;;;;;;2.75;1.83;;;10.50;85.30;;;;;;9174026;19;20024;-72
2023/02/19 12:39:51;;;;;;;3.53;2.05;;;10.50;85.20;;;;;;9171452;19;20025;-72
2023/02/19 12:43:04;;;;;;;4.15;2.22;;;10.50;85.20;;;;;;9168253;19;20109;-72
2023/02/19 12:46:19;;;;;;;3.28;1.90;;;10.50;85.10;;;;;;9173050;19;20760;-72
2023/02/19 12:49:29;;;;;;;5.47;2.40;;;10.50;85.00;;;;;;9172556;19;20546;-71
2023/02/19 12:52:40;;;;;;;5.82;2.33;;;10.50;85.00;;;;;;9174999;19;20011;-69
2023/02/19 12:55:46;;;;;;;2.67;1.90;;;10.50;84.90;;;;;;9173728;19;20019;-71
2023/02/19 12:58:57;;;;;;;3.20;1.63;;;10.50;84.90;;;;;;9170107;19;20030;-71
2023/02/19 13:02:11;;;;;;;2.72;2.05;;;10.50;84.80;;;;;;9168217;19;20014;-71
2023/02/19 13:05:22;;;;;;;3.75;1.90;;;10.60;84.80;;;;;;9171094;19;20010;-71
2023/02/19 13:08:31;;;;;;;4.47;2.20;;;10.60;84.70;;;;;;9168366;19;20098;-72
2023/02/19 13:11:44;;;;;;;8.63;2.67;;;10.60;84.60;;;;;;9170787;19;20014;-72
2023/02/19 13:14:52;;;;;;;4.68;2.50;;;10.60;84.60;;;;;;9174915;19;20018;-70
2023/02/19 13:18:01;;;;;;;3.17;1.90;;;10.70;84.60;;;;;;9170736;19;20014;-70
2023/02/19 13:21:07;;;;;;;4.07;1.98;;;10.70;84.50;;;;;;9164816;19;20018;-71
2023/02/19 13:24:15;;;;;;;3.60;1.85;;;10.70;84.50;;;;;;9170846;19;20022;-71
2023/02/19 13:27:45;;;;;;;6.50;2.90;;;10.70;84.30;;;;;;9170943;19;20102;-71
2023/02/19 13:31:04;;;;;;;3.85;2.38;;;10.70;84.20;;;;;;9168106;19;20471;-71
2023/02/19 13:34:23;;;;;;;4.95;2.97;;;10.80;84.20;;;;;;9169787;19;20018;-71
2023/02/19 13:37:33;;;;;;;11.13;4.63;;;10.80;84.10;;;;;;9173181;19;20014;-71
2023/02/19 13:40:42;;;;;;;3.33;2.40;;;10.70;84.10;;;;;;9174648;19;20023;-72
2023/02/19 13:43:56;;;;;;;3.55;2.60;;;10.80;84.10;;;;;;9162882;19;20025;-71
2023/02/19 13:47:04;;;;;;;7.22;3.10;;;10.80;84.00;;;;;;9169426;19;20018;-71
2023/02/19 13:50:21;;;;;;;4.30;2.83;;;10.80;84.00;;;;;;9167282;19;20014;-71
2023/02/19 13:53:39;;;;;;;;;;;10.80;83.80;;;;;;9174028;19;20022;-71
2023/02/19 13:56:45;;;;;;;2.70;1.80;;;10.80;83.90;;;;;;9171835;19;19915;-71
2023/02/19 13:59:49;;;;;;;;;;;10.80;84.00;;;;;;9174105;19;20089;-71
2023/02/19 14:03:28;;;;;;;6.40;2.97;;;10.70;83.90;;;;;;9169633;19;20431;-71
2023/02/19 14:07:09;;;;;;;4.60;2.53;;;10.70;83.70;;;;;;9171600;19;20018;-70
2023/02/19 14:11:01;;;;;;;4.03;2.35;;;10.70;83.60;;;;;;9171650;19;20030;-71
2023/02/19 14:14:09;;;;;;;4.47;2.65;;;10.70;83.60;;;;;;9172270;19;20019;-71
2023/02/19 14:17:39;;;;;;;5.05;2.25;;;10.70;83.80;;;;;;9167955;19;20015;-70
2023/02/19 14:20:44;;;;;;;5.32;2.45;;;10.70;83.50;;;;;;9164148;19;20029;-71
2023/02/19 14:23:56;;;;;;;3.83;2.42;;;10.60;83.60;;;;;;9169299;19;20015;-72
2023/02/19 14:27:01;;;;;;;4.43;2.58;;;10.60;83.50;;;;;;9172925;19;20426;-71
2023/02/19 14:30:11;;;;;;;3.97;2.05;;;10.60;83.50;;;;;;9169460;19;20691;-71
2023/02/19 14:33:18;;;;;;;2.50;1.88;;;10.60;83.40;;;;;;9172236;19;20426;-72
2023/02/19 14:36:34;;;;;;;2.53;1.45;;;10.60;83.50;;;;;;9170693;19;20018;-70
2023/02/19 14:39:40;;;;;;;3.33;2.03;;;10.60;83.30;;;;;;9171425;19;20029;-72
2023/02/19 14:42:46;;;;;;;1.95;1.42;;;10.60;83.40;;;;;;9165991;19;20022;-72
2023/02/19 14:45:55;;;;;;;2.00;1.55;;;10.60;83.30;;;;;;9170690;19;20023;-71
2023/02/19 14:49:06;;;;;;;2.47;1.50;;;10.60;83.20;;;;;;9168977;19;20010;-71
2023/02/19 14:52:17;;;;;;;2.00;1.40;;;10.60;83.20;;;;;;9168177;19;20046;-70
2023/02/19 14:55:31;;;;;;;2.80;1.08;;;10.60;83.20;;;;;;9168874;19;20014;-71
2023/02/19 14:58:35;;;;;;;2.28;1.27;;;10.60;83.10;;;;;;9170980;19;20025;-70
2023/02/19 15:01:41;;;;;;;3.08;2.10;;;10.60;83.10;;;;;;9169507;19;20021;-70
2023/02/19 15:04:45;;;;;;;2.30;1.70;;;10.60;83.10;;;;;;9171237;19;20018;-70
2023/02/19 15:07:54;;;;;;;7.53;1.88;;;10.60;82.90;;;;;;9169713;19;20026;-71
2023/02/19 15:11:01;;;;;;;1.80;1.58;;;10.60;82.90;;;;;;9169679;19;20515;-71
2023/02/19 15:14:09;;;;;;;3.13;1.52;;;10.60;82.70;;;;;;9167098;19;20021;-71
2023/02/19 15:17:18;;;;;;;6.80;1.98;;;10.60;82.70;;;;;;9167099;19;20021;-71
2023/02/19 15:20:28;;;;;;;1.85;1.30;;;10.60;82.60;;;;;;9163999;19;20011;-71
2023/02/19 15:23:36;;;;;;;2.13;1.17;;;10.60;82.70;;;;;;9165629;19;20029;-71
2023/02/19 15:26:49;;;;;;;2.42;1.60;;;10.60;82.60;;;;;;9166993;19;20022;-71
2023/02/19 15:29:54;;;;;;;2.97;1.60;;;10.60;82.50;;;;;;9169787;19;20122;-71
2023/02/19 15:33:01;;;;;;;2.40;1.67;;;10.60;83.10;;;;;;9168669;19;20014;-72
2023/02/19 15:36:08;;;;;;;6.30;2.80;;;10.60;82.40;;;;;;9169160;19;20106;-71
2023/02/19 15:39:21;;;;;;;3.17;2.03;;;10.50;82.40;;;;;;9169167;19;20021;-71
2023/02/19 15:42:30;;;;;;;2.92;1.80;;;10.50;82.30;;;;;;9167337;19;20018;-71
2023/02/19 15:45:42;;;;;;;1.52;1.27;;;10.50;82.30;;;;;;9169921;19;20015;-71
2023/02/19 15:48:51;;;;;;;1.90;1.40;;;10.50;82.20;;;;;;9169641;19;20026;-71
2023/02/19 15:52:01;;;;;;;3.17;1.70;;;10.50;82.30;;;;;;9168280;19;20017;-70
2023/02/19 15:55:14;;;;;;;2.10;1.70;;;10.50;82.20;;;;;;9167387;19;20022;-71
2023/02/19 15:58:27;;;;;;;4.57;1.70;;;10.50;82.20;;;;;;9165759;19;20021;-71
2023/02/19 16:01:33;;;;;;;3.80;2.35;;;10.40;82.20;;;;;;9167669;19;20018;-71
2023/02/19 16:04:40;;;;;;;3.03;2.10;;;10.40;82.10;;;;;;9170983;19;20014;-71
2023/02/19 16:07:44;;;;;;;2.65;1.90;;;10.40;82.10;;;;;;9175708;19;20014;-71
2023/02/19 16:10:58;;;;;;;3.60;1.80;;;10.30;82.10;;;;;;9176285;19;20014;-71
2023/02/19 16:14:23;;;;;;;2.60;1.60;;;10.30;82.60;;;;;;9177077;19;20019;-71
2023/02/19 16:17:29;;;;;;;5.07;2.92;;;10.30;81.90;;;;;;9175241;19;20011;-72
2023/02/19 16:20:35;;;;;;;;;;;10.30;82.10;;;;;;9172704;19;20555;-70
2023/02/19 16:23:43;;;;;;;1.95;1.33;;;10.30;82.10;;;;;;9173576;19;19915;-69
2023/02/19 16:26:47;;;;;;;3.45;1.30;;;10.20;82.20;;;;;;9176512;19;20356;-72
2023/02/19 16:29:56;;;;;;;2.45;1.60;;;10.20;82.10;;;;;;9173569;19;20021;-72
2023/02/19 16:33:30;;;;;;;6.80;2.53;;;10.20;82.00;;;;;;9176576;19;20015;-69
2023/02/19 16:36:40;;;;;;;3.20;1.73;;;10.20;81.90;;;;;;9173929;19;20025;-70
2023/02/19 16:39:44;;;;;;;3.72;1.77;;;10.10;82.00;;;;;;9176711;19;20014;-71
2023/02/19 16:43:26;;;;;;;2.17;1.40;;;10.10;82.00;;;;;;9171390;19;20014;-71
2023/02/19 16:46:32;;;;;;;3.00;1.60;;;10.10;81.80;;;;;;9169217;19;20018;-72
2023/02/19 16:49:41;;;;;;;3.83;1.60;;;10.00;81.90;;;;;;9169145;19;20018;-71
2023/02/19 16:52:52;;;;;;;2.53;1.70;;;10.00;81.90;;;;;;9170817;19;20044;-71
2023/02/19 16:55:58;;;;;;;6.43;3.33;;;10.00;81.90;;;;;;9168224;19;20494;-67
2023/02/19 16:59:02;;;;;;;5.13;2.47;;;10.00;82.00;;;;;;9172868;19;20026;-67